createdAt,value
2023-05-01T00:01:15.064Z,100602.59
2023-05-01T00:08:33.485Z,100591.09
2023-05-01T00:15:54.203Z,100583.91
2023-05-01T00:23:12.940Z,100590.56
2023-05-01T00:30:31.631Z,100586.44
2023-05-01T00:37:51.404Z,100579.78
2023-05-01T00:45:11.326Z,100561.25
2023-05-01T00:52:30.079Z,100561.88
2023-05-01T00:59:51.754Z,100561.81
2023-05-01T01:07:13.747Z,100554.91
2023-05-01T01:14:38.115Z,100557.06
2023-05-01T01:22:04.157Z,100545.44
2023-05-01T01:29:58.759Z,100556.28
2023-05-01T01:37:25.187Z,100550.25
2023-05-01T01:44:48.704Z,100541.53
2023-05-01T01:52:08.504Z,100534.44
2023-05-01T01:59:29.620Z,100538.59
2023-05-01T02:06:49.757Z,100534.94
2023-05-01T02:14:19.289Z,100532.22
2023-05-01T02:21:45.380Z,100522.94
2023-05-01T02:29:05.193Z,100515.41
2023-05-01T02:36:27.758Z,100510.53
2023-05-01T02:43:49.911Z,100502.00
2023-05-01T02:51:19.449Z,100510.19
2023-05-01T02:58:40.213Z,100499.72
2023-05-01T03:06:06.102Z,100506.28
2023-05-01T03:13:25.486Z,100504.66
2023-05-01T03:20:54.321Z,100501.66
2023-05-01T03:28:24.390Z,100498.94
2023-05-01T03:35:45.882Z,100487.81
2023-05-01T03:43:07.922Z,100492.81
2023-05-01T03:50:38.233Z,100499.09
2023-05-01T03:57:58.914Z,100495.78
2023-05-01T04:05:25.389Z,100485.81
2023-05-01T04:12:53.933Z,100491.59
2023-05-01T04:20:14.646Z,100488.22
2023-05-01T04:27:33.689Z,100500.41
2023-05-01T04:34:56.550Z,100500.50
2023-05-01T04:42:15.756Z,100507.66
2023-05-01T04:49:34.241Z,100510.41
2023-05-01T04:56:54.990Z,100502.06
2023-05-01T05:04:13.589Z,100497.41
2023-05-01T05:11:32.176Z,100492.44
2023-05-01T05:18:58.890Z,100493.16
2023-05-01T05:26:20.016Z,100487.72
2023-05-01T05:33:40.140Z,100491.44
2023-05-01T05:41:01.224Z,100482.66
2023-05-01T05:48:21.764Z,100467.97
2023-05-01T05:55:44.228Z,100481.84
2023-05-01T06:03:08.384Z,100480.47
2023-05-01T06:10:28.979Z,100488.88
2023-05-01T06:17:47.709Z,100483.44
2023-05-01T06:25:11.666Z,100486.72
2023-05-01T06:32:30.037Z,100476.69
2023-05-01T06:39:49.275Z,100469.38
2023-05-01T06:47:09.320Z,100468.47
2023-05-01T06:54:27.789Z,100463.47
2023-05-01T07:01:46.305Z,100454.75
2023-05-01T07:09:06.597Z,100448.88
2023-05-01T07:16:24.925Z,100437.91
2023-05-01T07:23:43.476Z,100438.41
2023-05-01T07:31:03.173Z,100434.69
2023-05-01T07:38:21.818Z,100422.16
2023-05-01T07:45:40.192Z,100428.84
2023-05-01T07:52:59.918Z,100416.53
2023-05-01T08:00:19.068Z,100406.50
2023-05-01T08:07:37.517Z,100423.06
2023-05-01T08:14:57.385Z,100412.00
2023-05-01T08:22:15.490Z,100409.97
2023-05-01T08:29:33.790Z,100398.44
2023-05-01T08:36:53.339Z,100401.19
2023-05-01T08:44:12.455Z,100390.78
2023-05-01T08:51:32.310Z,100392.31
2023-05-01T08:58:52.148Z,100386.69
2023-05-01T09:06:10.943Z,100383.56
2023-05-01T09:13:29.143Z,100360.34
2023-05-01T09:20:48.768Z,100356.06
2023-05-01T09:28:07.229Z,100350.53
2023-05-01T09:35:26.322Z,100335.06
2023-05-01T09:42:51.933Z,100339.63
2023-05-01T09:50:10.961Z,100332.44
2023-05-01T09:57:38.408Z,100322.38
2023-05-01T10:05:00.989Z,100322.72
2023-05-01T10:12:25.441Z,100314.41
2023-05-01T10:19:43.520Z,100298.75
2023-05-01T10:27:04.899Z,100272.31
2023-05-01T10:34:26.411Z,100268.38
2023-05-01T10:42:08.813Z,100262.38
2023-05-01T10:49:26.951Z,100259.22
2023-05-01T10:56:45.378Z,100241.81
2023-05-01T11:04:08.286Z,100239.97
2023-05-01T11:11:44.996Z,100229.69
2023-05-01T11:19:03.384Z,100215.09
2023-05-01T11:26:24.113Z,100219.41
2023-05-01T11:33:42.772Z,100196.66
2023-05-01T11:41:03.953Z,100171.44
2023-05-01T11:48:24.377Z,100153.72
2023-05-01T11:55:43.593Z,100152.97
2023-05-01T12:03:04.150Z,100143.47
2023-05-01T12:10:23.900Z,100138.97
2023-05-01T12:17:45.493Z,100120.25
2023-05-01T12:25:04.534Z,100126.44
2023-05-01T12:32:32.682Z,100117.31
2023-05-01T12:39:50.986Z,100103.22
2023-05-01T12:47:11.354Z,100081.28
2023-05-01T12:54:32.097Z,100079.41
2023-05-01T13:01:50.846Z,100078.47
2023-05-01T13:09:10.650Z,100051.03
2023-05-01T13:16:30.651Z,100049.63
2023-05-01T13:23:54.838Z,100034.25
2023-05-01T13:31:16.674Z,100012.78
2023-05-01T13:38:43.801Z,100010.75
2023-05-01T13:46:01.866Z,99996.97
2023-05-01T13:53:20.038Z,99999.00
2023-05-01T14:00:40.665Z,99988.16
2023-05-01T14:07:59.521Z,99968.94
2023-05-01T14:15:19.023Z,99955.97
2023-05-01T14:22:45.947Z,99948.25
2023-05-01T14:30:08.368Z,99955.28
2023-05-01T14:37:27.191Z,99941.47
2023-05-01T14:44:46.811Z,99916.69
2023-05-01T14:52:05.524Z,99911.31
2023-05-01T14:59:24.780Z,99905.50
2023-05-01T15:06:44.879Z,99909.94
2023-05-01T15:14:04.142Z,99896.56
2023-05-01T15:21:22.345Z,99893.13
2023-05-01T15:28:43.601Z,99884.66
2023-05-01T15:36:01.907Z,99871.16
2023-05-01T15:43:21.210Z,99872.75
2023-05-01T15:50:41.037Z,99854.16
2023-05-01T15:57:59.679Z,99859.69
2023-05-01T16:05:21.376Z,99859.94
2023-05-01T16:12:41.153Z,99848.50
2023-05-01T16:20:03.613Z,99842.13
2023-05-01T16:27:21.907Z,99832.88
2023-05-01T16:34:41.714Z,99828.78
2023-05-01T16:42:00.120Z,99836.59
2023-05-01T16:49:21.156Z,99836.25
2023-05-01T16:56:41.371Z,99824.03
2023-05-01T17:03:59.926Z,99832.13
2023-05-01T17:11:19.259Z,99826.44
2023-05-01T17:18:39.214Z,99829.25
2023-05-01T17:25:57.697Z,99822.16
2023-05-01T17:33:16.675Z,99816.75
2023-05-01T17:40:36.601Z,99808.66
2023-05-01T17:47:57.216Z,99806.75
2023-05-01T17:55:18.035Z,99804.59
2023-05-01T18:02:39.415Z,99809.13
2023-05-01T18:09:58.889Z,99806.53
2023-05-01T18:17:17.726Z,99824.09
2023-05-01T18:24:38.367Z,99822.25
2023-05-01T18:31:59.725Z,99820.19
2023-05-01T18:39:22.789Z,99825.22
2023-05-01T18:46:43.182Z,99825.63
2023-05-01T18:54:03.569Z,99834.38
2023-05-01T19:01:25.704Z,99843.13
2023-05-01T19:08:49.977Z,99833.91
2023-05-01T19:16:16.318Z,99830.16
2023-05-01T19:23:44.011Z,99834.38
2023-05-01T19:31:15.399Z,99823.28
2023-05-01T19:38:39.688Z,99821.72
2023-05-01T20:02:44.137Z,99828.72
2023-05-01T20:10:05.259Z,99837.69
2023-05-01T20:17:24.219Z,99831.25
2023-05-01T20:24:43.537Z,99823.16
2023-05-01T20:32:04.685Z,99817.25
2023-05-01T20:39:42.846Z,99828.84
2023-05-01T20:47:15.466Z,99830.47
2023-05-01T20:54:37.345Z,99832.13
2023-05-01T21:01:56.050Z,99830.38
2023-05-01T21:09:17.552Z,99829.78
2023-05-01T21:16:59.448Z,99825.94
2023-05-01T21:24:47.973Z,99828.34
2023-05-01T21:32:13.988Z,99823.16
2023-05-01T21:39:59.955Z,99826.47
2023-05-01T21:47:38.291Z,99828.97
2023-05-01T21:55:28.846Z,99819.88
2023-05-01T22:03:00.545Z,99823.75
2023-05-01T22:10:41.590Z,99823.38
2023-05-01T22:18:02.736Z,99821.38
2023-05-01T22:26:02.664Z,99817.16
2023-05-01T22:33:27.158Z,99817.34
2023-05-01T22:40:52.456Z,99807.38
2023-05-01T22:48:11.228Z,99804.50
2023-05-01T22:55:31.135Z,99801.63
2023-05-01T23:02:51.661Z,99808.63
2023-05-01T23:10:10.950Z,99802.59
2023-05-01T23:17:35.512Z,99804.56
2023-05-01T23:24:56.212Z,99803.00
2023-05-01T23:32:21.857Z,99801.28
2023-05-01T23:39:40.337Z,99801.78
2023-05-01T23:47:00.511Z,99798.44
2023-05-01T23:54:18.892Z,99805.31
